createdAt,value
2019-03-26T00:00:56.929Z,86.11
2019-03-26T00:04:11.160Z,85.94
2019-03-26T00:07:25.528Z,85.95
2019-03-26T00:10:39.571Z,86.03
2019-03-26T00:13:53.555Z,85.91
2019-03-26T00:17:07.845Z,86.08
2019-03-26T00:20:22.155Z,85.98
2019-03-26T00:23:36.271Z,86.32
2019-03-26T00:26:50.406Z,86.49
2019-03-26T00:30:07.501Z,86.37
2019-03-26T00:33:21.511Z,86.21
2019-03-26T00:36:35.616Z,86.11
2019-03-26T00:39:49.654Z,85.91
2019-03-26T00:43:03.779Z,85.74
2019-03-26T00:46:17.890Z,85.57
2019-03-26T00:49:32.030Z,85.13
2019-03-26T00:52:46.152Z,85.10
2019-03-26T00:56:00.187Z,85.26
2019-03-26T00:59:14.318Z,85.00
2019-03-26T01:02:28.352Z,85.21
2019-03-26T01:05:43.220Z,85.25
2019-03-26T01:08:57.245Z,85.36
2019-03-26T01:12:12.044Z,85.49
2019-03-26T01:15:26.054Z,85.45
2019-03-26T01:18:40.075Z,85.42
2019-03-26T01:21:54.195Z,85.11
2019-03-26T01:25:08.407Z,85.25
2019-03-26T01:28:22.430Z,84.75
2019-03-26T01:31:36.461Z,85.19
2019-03-26T01:34:50.460Z,86.06
2019-03-26T01:38:04.600Z,86.54
2019-03-26T01:41:19.130Z,86.64
2019-03-26T01:44:33.256Z,86.57
2019-03-26T01:47:47.380Z,86.46
2019-03-26T01:51:02.156Z,86.30
2019-03-26T01:54:16.462Z,85.77
2019-03-26T01:57:30.738Z,85.68
2019-03-26T02:00:44.983Z,85.00
2019-03-26T02:03:58.994Z,85.56
2019-03-26T02:07:13.124Z,85.73
2019-03-26T02:10:27.353Z,85.82
2019-03-26T02:13:41.631Z,85.80
2019-03-26T02:16:55.681Z,85.42
2019-03-26T02:20:10.036Z,85.67
2019-03-26T02:23:24.059Z,85.40
2019-03-26T02:26:38.055Z,86.09
2019-03-26T02:29:52.067Z,86.24
2019-03-26T02:33:06.182Z,86.43
2019-03-26T02:36:20.198Z,86.24
2019-03-26T02:39:34.627Z,86.24
2019-03-26T02:42:48.739Z,85.99
2019-03-26T02:46:02.853Z,86.00
2019-03-26T02:49:16.864Z,86.03
2019-03-26T02:52:31.349Z,86.18
2019-03-26T02:55:45.531Z,86.43
2019-03-26T02:58:59.599Z,86.55
2019-03-26T03:02:13.609Z,86.58
2019-03-26T03:05:34.965Z,86.50
2019-03-26T03:08:43.543Z,86.42
2019-03-26T03:11:58.000Z,86.51
2019-03-26T03:15:12.238Z,86.29
2019-03-26T03:18:26.269Z,86.50
2019-03-26T03:21:40.324Z,86.70
2019-03-26T03:24:54.968Z,86.71
2019-03-26T03:28:09.375Z,86.76
2019-03-26T03:31:23.407Z,86.59
2019-03-26T03:34:37.516Z,86.67
2019-03-26T03:37:51.679Z,86.51
2019-03-26T03:41:05.904Z,86.71
2019-03-26T03:44:20.012Z,86.62
2019-03-26T03:47:35.556Z,87.02
2019-03-26T03:50:52.055Z,87.32
2019-03-26T03:54:07.125Z,87.23
2019-03-26T03:57:24.478Z,87.27
2019-03-26T04:00:39.964Z,87.25
2019-03-26T04:03:54.294Z,87.21
2019-03-26T04:07:08.619Z,87.40
2019-03-26T04:10:22.639Z,87.37
2019-03-26T04:13:36.668Z,87.20
2019-03-26T04:16:50.922Z,87.24
2019-03-26T04:20:05.250Z,87.32
2019-03-26T04:23:19.303Z,87.38
2019-03-26T04:26:33.533Z,87.26
2019-03-26T04:29:47.530Z,87.25
2019-03-26T04:33:01.663Z,86.99
2019-03-26T04:36:25.415Z,86.90
2019-03-26T04:39:31.857Z,86.92
2019-03-26T04:42:46.096Z,86.66
2019-03-26T04:46:00.248Z,86.84
2019-03-26T04:52:48.292Z,87.08
2019-03-26T04:56:02.362Z,86.94
2019-03-26T04:59:16.379Z,86.96
2019-03-26T05:02:30.488Z,86.91
2019-03-26T05:05:44.635Z,86.86
2019-03-26T05:08:58.663Z,87.10
2019-03-26T05:12:12.665Z,87.23
2019-03-26T05:15:26.783Z,87.62
2019-03-26T05:18:41.120Z,87.68
2019-03-26T05:21:55.119Z,87.52
2019-03-26T05:25:09.606Z,87.41
2019-03-26T05:28:23.610Z,87.31
2019-03-26T05:31:38.072Z,87.40
2019-03-26T05:34:52.347Z,86.98
2019-03-26T05:38:06.461Z,87.29
2019-03-26T05:41:20.599Z,87.34
2019-03-26T05:44:34.632Z,87.51
2019-03-26T05:47:48.631Z,87.25
2019-03-26T05:51:02.758Z,87.10
2019-03-26T05:54:16.775Z,87.27
2019-03-26T05:57:30.892Z,87.55
2019-03-26T06:00:44.916Z,87.31
2019-03-26T06:03:58.957Z,87.32
2019-03-26T06:07:13.376Z,87.08
2019-03-26T06:10:27.390Z,87.11
2019-03-26T06:13:41.803Z,87.07
2019-03-26T06:16:56.180Z,87.21
2019-03-26T06:20:10.512Z,87.42
2019-03-26T06:23:24.719Z,87.04
2019-03-26T06:26:38.982Z,86.73
2019-03-26T06:29:53.253Z,86.73
2019-03-26T06:33:07.406Z,87.01
2019-03-26T06:36:21.430Z,86.94
2019-03-26T06:39:35.694Z,86.95
2019-03-26T06:42:49.717Z,86.88
2019-03-26T06:46:03.847Z,87.19
2019-03-26T06:49:17.952Z,87.19
2019-03-26T06:52:31.976Z,87.14
2019-03-26T06:55:46.001Z,87.19
2019-03-26T06:59:00.001Z,87.41
2019-03-26T07:02:14.330Z,87.38
2019-03-26T07:05:28.351Z,87.62
2019-03-26T07:08:42.368Z,87.90
2019-03-26T07:11:56.387Z,88.33
2019-03-26T07:15:10.638Z,88.23
2019-03-26T07:18:25.055Z,87.95
2019-03-26T07:21:49.209Z,87.50
2019-03-26T07:24:55.212Z,87.66
2019-03-26T07:28:09.227Z,87.80
2019-03-26T07:31:23.495Z,87.71
2019-03-26T07:34:37.501Z,87.83
2019-03-26T07:37:51.887Z,88.03
2019-03-26T07:41:06.013Z,87.77
2019-03-26T07:44:20.020Z,87.72
2019-03-26T07:47:34.960Z,88.30
2019-03-26T07:50:49.108Z,87.80
2019-03-26T07:54:03.516Z,86.07
2019-03-26T07:57:17.675Z,85.92
2019-03-26T08:00:33.520Z,83.09
2019-03-26T08:03:48.256Z,79.97
2019-03-26T08:07:02.297Z,79.47
2019-03-26T08:10:16.343Z,79.28
2019-03-26T08:13:30.494Z,76.18
2019-03-26T08:16:44.860Z,74.12
2019-03-26T08:19:58.893Z,74.34
2019-03-26T08:23:12.933Z,71.17
2019-03-26T08:26:26.949Z,70.07
2019-03-26T08:29:40.975Z,73.20
2019-03-26T08:32:55.168Z,70.04
2019-03-26T08:36:09.663Z,71.22
2019-03-26T08:39:23.712Z,70.76
2019-03-26T08:42:37.851Z,67.85
2019-03-26T08:45:51.991Z,68.92
2019-03-26T08:49:06.245Z,65.02
2019-03-26T08:52:20.330Z,63.89
2019-03-26T08:55:34.562Z,63.44
2019-03-26T08:58:48.694Z,64.42
2019-03-26T09:02:03.253Z,63.96
2019-03-26T09:05:17.480Z,64.07
2019-03-26T09:08:31.767Z,64.56
2019-03-26T09:11:45.886Z,64.81
2019-03-26T09:14:59.939Z,63.30
2019-03-26T09:18:14.033Z,64.39
2019-03-26T09:21:28.910Z,63.64
2019-03-26T09:24:42.977Z,63.19
2019-03-26T09:27:58.250Z,64.31
2019-03-26T09:31:12.392Z,63.10
2019-03-26T09:34:26.482Z,64.26
2019-03-26T09:37:40.521Z,64.25
2019-03-26T09:40:54.884Z,64.27
2019-03-26T09:44:09.154Z,61.98
2019-03-26T09:47:23.203Z,61.19
2019-03-26T09:50:37.445Z,61.35
2019-03-26T09:53:51.498Z,61.14
2019-03-26T09:57:06.091Z,61.99
2019-03-26T10:00:20.674Z,61.84
2019-03-26T10:03:35.147Z,61.97
2019-03-26T10:06:49.314Z,61.38
2019-03-26T10:10:04.697Z,60.63
2019-03-26T10:13:18.916Z,60.92
2019-03-26T10:16:33.202Z,61.25
2019-03-26T10:19:47.537Z,60.10
2019-03-26T10:23:01.794Z,62.13
2019-03-26T10:26:16.035Z,61.82
2019-03-26T10:29:31.221Z,61.20
2019-03-26T10:32:45.643Z,60.93
2019-03-26T10:36:00.101Z,61.76
2019-03-26T10:39:14.182Z,59.93
2019-03-26T10:42:28.496Z,60.25
2019-03-26T10:45:42.856Z,60.43
2019-03-26T10:48:56.998Z,59.38
2019-03-26T10:52:11.478Z,59.45
2019-03-26T10:55:26.017Z,59.40
2019-03-26T10:58:40.041Z,56.51
2019-03-26T11:01:54.180Z,55.55
2019-03-26T11:08:31.769Z,54.22
2019-03-26T11:11:45.906Z,52.99
2019-03-26T11:14:59.976Z,52.82
2019-03-26T11:18:14.026Z,52.42
2019-03-26T11:21:28.169Z,53.97
2019-03-26T11:24:42.312Z,53.24
2019-03-26T11:27:56.568Z,53.17
2019-03-26T11:31:10.808Z,53.55
2019-03-26T11:34:24.951Z,54.29
2019-03-26T11:37:39.130Z,52.52
2019-03-26T11:40:54.057Z,53.72
2019-03-26T11:44:08.249Z,56.63
2019-03-26T11:47:22.374Z,53.51
2019-03-26T11:50:36.651Z,52.87
2019-03-26T11:53:50.693Z,53.40
2019-03-26T11:57:04.829Z,52.87
2019-03-26T12:00:25.273Z,53.81
2019-03-26T12:03:39.824Z,54.38
2019-03-26T12:06:53.868Z,52.96
2019-03-26T12:10:08.859Z,53.41
2019-03-26T12:13:23.304Z,52.29
2019-03-26T12:16:37.827Z,54.09
2019-03-26T12:19:52.316Z,53.85
2019-03-26T12:23:06.343Z,54.01
2019-03-26T12:26:20.508Z,54.04
2019-03-26T12:29:34.803Z,54.26
2019-03-26T12:32:48.834Z,52.53
2019-03-26T12:36:03.102Z,51.87
2019-03-26T12:39:17.262Z,51.85
2019-03-26T12:42:31.596Z,49.05
2019-03-26T12:45:45.945Z,50.30
2019-03-26T12:49:00.322Z,50.13
2019-03-26T12:52:14.714Z,51.35
2019-03-26T12:55:29.194Z,51.62
2019-03-26T12:58:43.645Z,51.53
2019-03-26T13:01:57.760Z,52.73
2019-03-26T13:05:11.992Z,52.20
2019-03-26T13:08:26.555Z,53.98
2019-03-26T13:11:40.963Z,53.15
2019-03-26T13:14:55.380Z,54.26
2019-03-26T13:18:11.221Z,55.42
2019-03-26T13:21:25.573Z,52.86
2019-03-26T13:24:39.743Z,53.26
2019-03-26T13:27:53.808Z,52.04
2019-03-26T13:31:07.971Z,51.58
2019-03-26T13:34:22.242Z,51.36
2019-03-26T13:37:36.377Z,50.73
2019-03-26T13:40:50.574Z,49.33
2019-03-26T13:44:04.956Z,50.10
2019-03-26T13:47:19.072Z,50.58
2019-03-26T13:50:33.303Z,49.55
2019-03-26T13:53:47.455Z,50.59
2019-03-26T13:57:21.428Z,48.58
2019-03-26T14:00:37.410Z,49.64
2019-03-26T14:03:51.652Z,48.80
2019-03-26T14:07:06.334Z,49.96
2019-03-26T14:10:20.611Z,49.63
2019-03-26T14:13:35.038Z,49.85
2019-03-26T14:16:49.162Z,47.33
2019-03-26T14:20:26.085Z,48.59
2019-03-26T14:23:40.207Z,47.05
2019-03-26T14:26:54.257Z,48.59
2019-03-26T14:30:10.723Z,47.48
2019-03-26T14:33:24.991Z,47.45
2019-03-26T14:36:39.525Z,45.35
2019-03-26T14:39:54.583Z,44.97
2019-03-26T14:43:09.040Z,42.91
2019-03-26T14:46:23.105Z,41.52
2019-03-26T14:49:37.458Z,40.17
2019-03-26T14:52:52.606Z,38.69
2019-03-26T14:56:07.231Z,37.23
2019-03-26T14:59:21.415Z,38.83
2019-03-26T15:02:35.541Z,41.11
2019-03-26T15:05:49.958Z,41.85
2019-03-26T15:09:07.038Z,43.06
2019-03-26T15:12:21.565Z,42.91
2019-03-26T15:15:36.685Z,44.64
2019-03-26T15:18:50.998Z,44.68
2019-03-26T15:22:05.167Z,45.00
2019-03-26T15:25:19.303Z,44.16
2019-03-26T15:28:33.338Z,45.75
2019-03-26T15:31:47.378Z,45.78
2019-03-26T15:35:02.081Z,45.66
2019-03-26T15:38:16.204Z,46.35
2019-03-26T15:41:30.564Z,47.02
2019-03-26T15:44:44.653Z,47.56
2019-03-26T15:47:59.160Z,47.11
2019-03-26T15:51:13.370Z,46.59
2019-03-26T15:54:27.416Z,47.37
2019-03-26T15:57:41.459Z,47.80
2019-03-26T16:00:55.622Z,48.20
2019-03-26T16:04:09.661Z,48.43
2019-03-26T16:07:23.737Z,49.08
2019-03-26T16:10:37.999Z,48.77
2019-03-26T16:13:52.045Z,49.15
2019-03-26T16:20:43.055Z,49.26
2019-03-26T16:23:57.105Z,47.77
2019-03-26T16:27:11.208Z,47.48
2019-03-26T16:30:25.392Z,47.08
2019-03-26T16:33:39.576Z,47.47
2019-03-26T16:36:59.838Z,47.34
2019-03-26T16:40:10.164Z,48.46
2019-03-26T16:43:24.308Z,48.20
2019-03-26T16:46:38.465Z,49.21
2019-03-26T16:49:52.633Z,47.68
2019-03-26T16:53:06.796Z,48.13
2019-03-26T16:56:20.983Z,49.14
2019-03-26T16:59:35.181Z,50.19
2019-03-26T17:02:49.767Z,49.02
2019-03-26T17:06:03.918Z,48.83
2019-03-26T17:09:17.968Z,49.64
2019-03-26T17:12:32.263Z,49.80
2019-03-26T17:15:46.528Z,50.15
2019-03-26T17:19:00.562Z,50.97
2019-03-26T17:22:14.635Z,50.97
2019-03-26T17:25:28.894Z,50.51
2019-03-26T17:28:43.315Z,50.65
2019-03-26T17:31:57.352Z,50.88
2019-03-26T17:35:11.716Z,51.80
2019-03-26T17:38:25.850Z,52.37
2019-03-26T17:41:40.200Z,52.58
2019-03-26T17:44:58.176Z,52.26
2019-03-26T17:48:10.838Z,53.12
2019-03-26T17:51:25.120Z,53.48
2019-03-26T17:54:39.263Z,54.95
2019-03-26T17:57:53.390Z,55.34
2019-03-26T18:01:07.554Z,55.98
2019-03-26T18:04:21.978Z,56.68
2019-03-26T18:07:36.507Z,57.37
2019-03-26T18:10:50.772Z,58.19
2019-03-26T18:14:04.836Z,57.92
2019-03-26T18:17:19.265Z,58.44
2019-03-26T18:20:33.419Z,59.50
2019-03-26T18:23:47.580Z,59.43
2019-03-26T18:27:01.714Z,58.94
2019-03-26T18:30:16.960Z,59.32
2019-03-26T18:33:31.088Z,59.44
2019-03-26T18:36:45.236Z,59.45
2019-03-26T18:39:59.495Z,59.84
2019-03-26T18:43:13.748Z,60.35
2019-03-26T18:46:27.900Z,60.67
2019-03-26T18:49:41.989Z,61.62
2019-03-26T18:52:56.163Z,62.73
2019-03-26T18:56:10.320Z,62.95
2019-03-26T18:59:24.347Z,62.14
2019-03-26T19:02:38.419Z,61.95
2019-03-26T19:05:52.780Z,61.19
2019-03-26T19:09:07.508Z,61.26
2019-03-26T19:12:21.631Z,62.20
2019-03-26T19:15:35.880Z,61.99
2019-03-26T19:18:49.929Z,62.42
2019-03-26T19:22:04.074Z,63.57
2019-03-26T19:25:18.201Z,64.13
2019-03-26T19:28:32.253Z,64.83
2019-03-26T19:31:46.380Z,65.37
2019-03-26T19:35:00.410Z,65.66
2019-03-26T19:38:14.432Z,66.68
2019-03-26T19:41:28.724Z,67.35
2019-03-26T19:44:42.742Z,67.50
2019-03-26T19:47:56.997Z,68.48
2019-03-26T19:51:11.117Z,68.13
2019-03-26T19:54:25.452Z,69.02
2019-03-26T19:57:39.771Z,69.08
2019-03-26T20:00:53.785Z,69.24
2019-03-26T20:04:07.822Z,69.79
2019-03-26T20:07:21.852Z,70.07
2019-03-26T20:10:35.967Z,70.27
2019-03-26T20:13:50.214Z,70.30
2019-03-26T20:17:04.465Z,70.97
2019-03-26T20:20:19.144Z,72.17
2019-03-26T20:23:33.267Z,71.90
2019-03-26T20:26:47.421Z,72.36
2019-03-26T20:30:01.541Z,72.89
2019-03-26T20:33:15.867Z,74.85
2019-03-26T20:36:29.883Z,74.96
2019-03-26T20:39:43.911Z,75.10
2019-03-26T20:42:58.142Z,75.27
2019-03-26T20:46:12.274Z,75.29
2019-03-26T20:49:26.300Z,75.99
2019-03-26T20:52:40.441Z,75.85
2019-03-26T20:55:54.975Z,75.44
2019-03-26T20:59:10.229Z,75.13
2019-03-26T21:02:24.352Z,74.92
2019-03-26T21:05:38.596Z,74.87
2019-03-26T21:08:52.607Z,74.99
2019-03-26T21:12:07.022Z,75.12
2019-03-26T21:15:21.033Z,74.83
2019-03-26T21:18:35.207Z,74.86
2019-03-26T21:21:49.314Z,74.49
2019-03-26T21:25:03.990Z,74.81
2019-03-26T21:28:18.011Z,75.38
2019-03-26T21:31:32.126Z,75.02
2019-03-26T21:34:47.085Z,75.15
2019-03-26T21:38:01.314Z,74.90
2019-03-26T21:41:15.590Z,74.93
2019-03-26T21:44:29.651Z,75.17
2019-03-26T21:47:43.695Z,74.94
2019-03-26T21:50:58.539Z,75.11
2019-03-26T21:54:12.679Z,75.25
2019-03-26T21:57:26.704Z,75.50
2019-03-26T22:00:40.809Z,75.56
2019-03-26T22:03:55.991Z,75.58
2019-03-26T22:07:10.324Z,75.30
2019-03-26T22:10:24.542Z,75.58
2019-03-26T22:13:38.564Z,75.28
2019-03-26T22:16:52.571Z,75.13
2019-03-26T22:20:07.008Z,75.32
2019-03-26T22:23:21.148Z,75.96
2019-03-26T22:26:35.162Z,75.87
2019-03-26T22:29:49.187Z,75.87
2019-03-26T22:33:03.396Z,75.81
2019-03-26T22:36:17.529Z,76.21
2019-03-26T22:39:31.912Z,76.14
2019-03-26T22:42:46.176Z,76.32
2019-03-26T22:46:00.406Z,76.10
2019-03-26T22:49:14.471Z,75.40
2019-03-26T22:52:28.502Z,75.80
2019-03-26T22:55:42.512Z,76.05
2019-03-26T22:58:56.535Z,75.85
2019-03-26T23:02:10.948Z,75.14
2019-03-26T23:05:25.207Z,75.27
2019-03-26T23:08:39.336Z,75.15
2019-03-26T23:11:53.557Z,75.73
2019-03-26T23:15:17.468Z,75.96
2019-03-26T23:18:31.622Z,76.03
2019-03-26T23:21:45.755Z,76.27
2019-03-26T23:24:59.937Z,76.86
2019-03-26T23:28:13.954Z,77.41
2019-03-26T23:31:28.071Z,77.10
2019-03-26T23:34:42.224Z,76.86
2019-03-26T23:37:56.367Z,76.75
2019-03-26T23:41:10.366Z,76.70
2019-03-26T23:44:26.166Z,76.64
2019-03-26T23:47:40.544Z,77.32
2019-03-26T23:50:54.671Z,77.31
2019-03-26T23:54:08.799Z,77.49
2019-03-26T23:57:22.810Z,77.62
